createdAt,value
2019-05-13T00:02:19.816Z,7.10
2019-05-13T00:04:53.098Z,7.10
2019-05-13T00:07:24.080Z,7.10
2019-05-13T00:09:55.308Z,7.00
2019-05-13T00:12:26.548Z,7.00
2019-05-13T00:14:57.743Z,7.00
2019-05-13T00:17:29.010Z,7.00
2019-05-13T00:20:00.275Z,7.00
2019-05-13T00:22:33.867Z,6.90
2019-05-13T00:25:04.389Z,6.90
2019-05-13T00:27:35.779Z,6.80
2019-05-13T00:30:09.210Z,6.80
2019-05-13T00:32:40.482Z,6.70
2019-05-13T00:35:14.215Z,6.70
2019-05-13T00:37:45.731Z,6.60
2019-05-13T00:40:17.084Z,6.40
2019-05-13T00:42:48.258Z,6.30
2019-05-13T00:45:19.537Z,6.30
2019-05-13T00:47:50.784Z,6.30
2019-05-13T00:50:24.018Z,6.20
2019-05-13T00:52:54.872Z,6.10
2019-05-13T00:55:26.085Z,6.10
2019-05-13T00:57:57.394Z,6.10
2019-05-13T01:00:28.772Z,6.10
2019-05-13T01:02:59.972Z,6.00
2019-05-13T01:05:31.218Z,6.00
2019-05-13T01:08:04.257Z,5.90
2019-05-13T01:10:35.552Z,5.90
2019-05-13T01:13:06.748Z,5.80
2019-05-13T01:15:37.996Z,5.70
2019-05-13T01:18:09.213Z,5.70
2019-05-13T01:20:40.435Z,5.70
2019-05-13T01:23:13.890Z,5.60
2019-05-13T01:25:44.727Z,5.70
2019-05-13T01:28:15.918Z,5.70
2019-05-13T01:30:47.180Z,5.70
2019-05-13T01:33:18.470Z,5.60
2019-05-13T01:35:49.732Z,5.60
2019-05-13T01:38:21.166Z,5.60
2019-05-13T01:40:53.999Z,5.50
2019-05-13T01:43:25.202Z,5.50
2019-05-13T01:45:56.475Z,5.40
2019-05-13T01:48:27.764Z,5.40
2019-05-13T01:50:58.974Z,5.50
2019-05-13T01:53:30.230Z,5.50
2019-05-13T01:56:03.648Z,5.40
2019-05-13T01:58:34.424Z,5.40
2019-05-13T02:01:05.772Z,5.40
2019-05-13T02:03:37.076Z,5.30
2019-05-13T02:06:08.291Z,5.30
2019-05-13T02:08:39.441Z,5.30
2019-05-13T02:11:10.717Z,5.20
2019-05-13T02:13:44.489Z,5.20
2019-05-13T02:16:14.840Z,5.10
2019-05-13T02:18:46.085Z,5.00
2019-05-13T02:21:17.341Z,5.00
2019-05-13T02:23:48.677Z,5.00
2019-05-13T02:26:19.905Z,5.00
2019-05-13T02:28:51.108Z,5.00
2019-05-13T02:31:38.911Z,4.90
2019-05-13T02:33:55.216Z,4.90
2019-05-13T02:36:26.494Z,4.80
2019-05-13T02:38:57.747Z,4.70
2019-05-13T02:41:29.020Z,4.70
2019-05-13T02:44:03.208Z,4.60
2019-05-13T02:46:34.033Z,4.60
2019-05-13T02:49:05.538Z,4.50
2019-05-13T02:51:36.784Z,4.50
2019-05-13T02:54:07.979Z,4.40
2019-05-13T02:56:41.584Z,4.30
2019-05-13T02:59:13.210Z,4.30
2019-05-13T03:01:44.729Z,4.20
2019-05-13T03:04:15.934Z,4.20
2019-05-13T03:06:47.140Z,4.10
2019-05-13T03:09:18.371Z,4.00
2019-05-13T03:11:53.203Z,3.90
2019-05-13T03:14:23.947Z,3.90
2019-05-13T03:17:03.256Z,3.80
2019-05-13T03:19:34.065Z,3.80
2019-05-13T03:22:05.342Z,3.70
2019-05-13T03:24:36.590Z,3.70
2019-05-13T03:27:07.779Z,3.80
2019-05-13T03:29:39.015Z,3.80
2019-05-13T03:32:15.755Z,3.90
2019-05-13T03:34:45.578Z,3.90
2019-05-13T03:37:16.737Z,3.90
2019-05-13T03:39:52.145Z,3.90
2019-05-13T03:42:26.275Z,3.80
2019-05-13T03:45:03.096Z,3.80
2019-05-13T03:47:35.425Z,3.80
2019-05-13T03:50:08.525Z,3.70
2019-05-13T03:52:43.117Z,3.70
2019-05-13T03:55:13.311Z,3.70
2019-05-13T03:57:44.644Z,3.80
2019-05-13T04:00:16.384Z,3.90
2019-05-13T04:02:48.087Z,3.90
2019-05-13T04:05:22.478Z,4.00
2019-05-13T04:07:52.883Z,4.10
2019-05-13T04:10:24.130Z,4.20
2019-05-13T04:12:55.564Z,4.30
2019-05-13T04:15:26.853Z,4.30
2019-05-13T04:18:02.537Z,4.30
2019-05-13T04:20:33.263Z,4.40
2019-05-13T04:23:04.409Z,4.50
2019-05-13T04:25:39.593Z,4.50
2019-05-13T04:28:08.793Z,4.60
2019-05-13T04:30:43.358Z,4.70
2019-05-13T04:33:14.161Z,4.90
2019-05-13T04:35:45.744Z,5.00
2019-05-13T04:38:16.913Z,5.10
2019-05-13T04:40:48.152Z,5.30
2019-05-13T04:43:23.205Z,5.40
2019-05-13T04:45:52.738Z,5.60
2019-05-13T04:48:24.195Z,5.60
2019-05-13T04:50:55.792Z,5.80
2019-05-13T04:53:27.230Z,5.90
2019-05-13T04:56:03.075Z,6.00
2019-05-13T04:58:35.513Z,6.10
2019-05-13T05:01:55.354Z,6.20
2019-05-13T05:04:54.805Z,6.30
2019-05-13T05:08:24.670Z,6.40
2019-05-13T05:12:04.908Z,6.50
2019-05-13T05:15:52.253Z,6.60
2019-05-13T05:19:24.883Z,6.80
2019-05-13T05:22:17.808Z,6.90
2019-05-13T05:25:15.021Z,7.00
2019-05-13T05:28:15.419Z,7.20
2019-05-13T05:31:58.383Z,7.30
2019-05-13T05:35:33.381Z,7.50
2019-05-13T05:38:43.485Z,7.70
2019-05-13T05:41:21.355Z,7.80
2019-05-13T05:43:56.619Z,7.90
2019-05-13T05:46:32.228Z,8.00
2019-05-13T05:49:09.111Z,8.30
2019-05-13T05:51:42.002Z,8.70
2019-05-13T05:54:14.778Z,8.90
2019-05-13T05:56:51.910Z,9.10
2019-05-13T05:59:26.542Z,9.40
2019-05-13T06:02:01.931Z,9.70
2019-05-13T06:04:32.731Z,9.90
2019-05-13T06:07:04.926Z,10.20
2019-05-13T06:09:36.302Z,10.40
2019-05-13T06:12:07.660Z,10.60
2019-05-13T06:14:42.119Z,10.50
2019-05-13T06:17:12.481Z,10.60
2019-05-13T06:19:44.367Z,10.60
2019-05-13T06:22:15.512Z,10.80
2019-05-13T06:24:46.865Z,11.10
2019-05-13T06:27:18.097Z,11.10
2019-05-13T06:29:52.634Z,10.90
2019-05-13T06:32:26.246Z,10.90
2019-05-13T06:34:55.395Z,10.80
2019-05-13T06:37:26.778Z,10.80
2019-05-13T06:39:58.235Z,10.90
2019-05-13T06:42:29.523Z,11.10
2019-05-13T06:45:01.927Z,11.40
2019-05-13T06:47:36.155Z,11.40
2019-05-13T06:50:06.605Z,11.70
2019-05-13T06:52:37.871Z,11.90
2019-05-13T06:55:11.575Z,12.20
2019-05-13T06:57:42.667Z,12.70
2019-05-13T07:00:14.125Z,13.00
2019-05-13T07:02:45.345Z,13.80
2019-05-13T07:05:16.706Z,14.20
2019-05-13T07:07:47.938Z,14.10
2019-05-13T07:10:21.480Z,14.30
2019-05-13T07:12:52.118Z,14.40
2019-05-13T07:15:23.412Z,14.50
2019-05-13T07:17:54.613Z,14.50
2019-05-13T07:20:25.885Z,14.30
2019-05-13T07:22:57.094Z,14.20
2019-05-13T07:25:28.349Z,14.10
2019-05-13T07:28:02.257Z,14.30
2019-05-13T07:30:43.389Z,14.30
2019-05-13T07:33:14.836Z,14.00
2019-05-13T07:35:46.702Z,13.80
2019-05-13T07:38:19.196Z,13.90
2019-05-13T07:40:57.599Z,14.40
2019-05-13T07:43:28.772Z,14.70
2019-05-13T07:46:02.057Z,14.70
2019-05-13T07:48:33.342Z,14.80
2019-05-13T07:51:05.031Z,14.90
2019-05-13T07:53:37.567Z,14.90
2019-05-13T07:56:08.855Z,15.20
2019-05-13T07:58:41.831Z,15.50
2019-05-13T08:01:13.145Z,15.70
2019-05-13T08:03:47.105Z,16.10
2019-05-13T08:06:18.370Z,16.60
2019-05-13T08:08:52.113Z,17.00
2019-05-13T08:11:23.991Z,16.40
2019-05-13T08:14:04.820Z,15.90
2019-05-13T08:16:56.862Z,16.20
2019-05-13T08:19:36.949Z,16.40
2019-05-13T08:22:37.311Z,17.00
2019-05-13T08:25:38.942Z,17.50
2019-05-13T08:28:12.303Z,17.60
2019-05-13T08:30:43.227Z,17.10
2019-05-13T08:33:14.538Z,17.00
2019-05-13T08:35:47.215Z,16.90
2019-05-13T08:38:18.638Z,16.90
2019-05-13T08:40:51.246Z,16.60
2019-05-13T08:43:22.785Z,16.40
2019-05-13T08:45:55.819Z,16.50
2019-05-13T08:48:27.371Z,16.80
2019-05-13T08:50:58.649Z,17.20
2019-05-13T08:53:31.744Z,16.90
2019-05-13T08:56:02.872Z,16.90
2019-05-13T08:58:34.113Z,16.70
2019-05-13T09:01:05.538Z,17.30
2019-05-13T09:03:36.780Z,17.80
2019-05-13T09:06:08.277Z,17.80
2019-05-13T09:08:41.792Z,17.70
2019-05-13T09:11:13.075Z,17.80
2019-05-13T09:13:44.276Z,17.50
2019-05-13T09:16:15.577Z,17.30
2019-05-13T09:18:52.069Z,17.30
2019-05-13T09:21:22.655Z,17.20
2019-05-13T09:23:56.699Z,16.80
2019-05-13T09:26:31.636Z,16.60
2019-05-13T09:29:02.660Z,16.60
2019-05-13T09:31:33.934Z,16.30
2019-05-13T09:34:05.244Z,15.90
2019-05-13T09:36:36.512Z,16.00
2019-05-13T09:39:12.409Z,16.30
2019-05-13T09:41:44.605Z,17.20
2019-05-13T09:44:15.606Z,17.80
2019-05-13T09:46:46.906Z,17.70
2019-05-13T09:49:20.060Z,16.70
2019-05-13T09:51:52.273Z,16.50
2019-05-13T09:54:24.162Z,16.00
2019-05-13T09:56:55.648Z,15.80
2019-05-13T09:59:26.912Z,15.50
2019-05-13T10:01:58.194Z,15.20
2019-05-13T10:04:31.728Z,15.10
2019-05-13T10:07:02.838Z,14.90
2019-05-13T10:09:34.165Z,15.00
2019-05-13T10:12:05.913Z,15.00
2019-05-13T10:14:37.074Z,15.00
2019-05-13T10:17:08.307Z,14.80
2019-05-13T10:19:41.779Z,14.70
2019-05-13T10:22:12.451Z,14.60
2019-05-13T10:24:43.706Z,14.40
2019-05-13T10:27:18.883Z,14.20
2019-05-13T10:29:48.578Z,14.10
2019-05-13T10:32:21.984Z,14.20
2019-05-13T10:34:54.389Z,14.20
2019-05-13T10:37:25.900Z,14.30
2019-05-13T10:39:57.238Z,14.30
2019-05-13T10:42:28.577Z,14.30
2019-05-13T10:45:02.575Z,14.40
2019-05-13T10:47:32.837Z,14.50
2019-05-13T10:50:04.265Z,14.50
2019-05-13T10:52:35.505Z,14.60
2019-05-13T10:55:07.429Z,14.50
2019-05-13T10:57:38.761Z,14.50
2019-05-13T11:02:44.328Z,14.50
2019-05-13T11:05:15.723Z,14.50
2019-05-13T11:07:46.944Z,14.60
2019-05-13T11:10:24.240Z,14.70
2019-05-13T11:12:55.329Z,14.70
2019-05-13T11:15:26.592Z,14.70
2019-05-13T11:18:03.072Z,14.80
2019-05-13T11:20:44.639Z,14.90
2019-05-13T11:23:23.465Z,15.10
2019-05-13T11:26:03.243Z,15.00
2019-05-13T11:28:34.510Z,14.90
2019-05-13T11:31:05.768Z,14.80
2019-05-13T11:33:36.984Z,14.60
2019-05-13T11:36:08.262Z,14.60
2019-05-13T11:38:43.101Z,14.80
2019-05-13T11:41:12.740Z,14.80
2019-05-13T11:43:45.863Z,14.70
2019-05-13T11:46:17.143Z,14.90
2019-05-13T11:48:48.523Z,15.00
2019-05-13T11:51:19.802Z,15.00
2019-05-13T11:53:52.517Z,15.00
2019-05-13T11:56:24.040Z,15.00
2019-05-13T11:58:55.319Z,15.10
2019-05-13T12:01:26.576Z,15.20
2019-05-13T12:03:57.711Z,15.40
2019-05-13T12:06:28.875Z,15.40
2019-05-13T12:09:03.222Z,15.40
2019-05-13T12:11:33.512Z,15.40
2019-05-13T12:14:05.247Z,15.30
2019-05-13T12:16:36.485Z,15.30
2019-05-13T12:19:07.835Z,15.30
2019-05-13T12:21:43.342Z,15.40
2019-05-13T12:24:12.178Z,15.40
2019-05-13T12:26:43.689Z,15.50
2019-05-13T12:29:18.899Z,15.60
2019-05-13T12:31:52.719Z,15.60
2019-05-13T12:34:23.675Z,15.50
2019-05-13T12:36:54.859Z,15.50
2019-05-13T12:39:26.125Z,15.60
2019-05-13T12:41:55.989Z,15.60
2019-05-13T12:44:27.287Z,15.60
2019-05-13T12:46:58.633Z,15.70
2019-05-13T12:49:33.559Z,15.80
2019-05-13T12:52:04.641Z,15.90
2019-05-13T12:54:35.567Z,15.90
2019-05-13T12:57:11.995Z,15.80
2019-05-13T12:59:43.036Z,15.80
2019-05-13T13:05:08.036Z,15.80
2019-05-13T13:07:18.596Z,15.80
2019-05-13T13:09:53.118Z,15.70
2019-05-13T13:12:33.266Z,15.60
2019-05-13T13:14:55.725Z,15.60
2019-05-13T13:17:26.997Z,15.70
2019-05-13T13:20:06.118Z,15.80
2019-05-13T13:22:32.075Z,15.90
2019-05-13T13:25:04.893Z,16.00
2019-05-13T13:28:03.795Z,15.90
2019-05-13T13:30:10.229Z,16.00
2019-05-13T13:32:45.338Z,16.00
2019-05-13T13:35:15.103Z,16.10
2019-05-13T13:37:46.419Z,16.20
2019-05-13T13:40:25.900Z,16.20
2019-05-13T13:42:52.983Z,16.20
2019-05-13T13:45:36.802Z,16.10
2019-05-13T13:48:04.442Z,16.20
2019-05-13T13:50:37.533Z,16.10
2019-05-13T13:53:13.888Z,16.00
2019-05-13T13:55:47.759Z,16.00
2019-05-13T13:58:25.468Z,16.00
2019-05-13T14:01:05.688Z,16.00
2019-05-13T14:03:32.956Z,16.00
2019-05-13T14:06:06.354Z,16.00
2019-05-13T14:06:32.810Z,14.50
2019-05-13T14:07:12.861Z,15.90
2019-05-13T14:08:37.148Z,16.00
2019-05-13T14:11:08.307Z,16.00
2019-05-13T14:13:39.658Z,16.20
2019-05-13T14:16:29.148Z,16.30
2019-05-13T14:18:55.359Z,16.30
2019-05-13T14:21:32.424Z,16.50
2019-05-13T14:24:05.949Z,16.60
2019-05-13T14:26:43.204Z,16.70
2019-05-13T14:29:18.210Z,16.70
2019-05-13T14:31:51.828Z,16.80
2019-05-13T14:34:22.371Z,17.00
2019-05-13T14:36:53.738Z,17.10
2019-05-13T14:39:24.991Z,17.40
2019-05-13T14:41:56.250Z,17.90
2019-05-13T14:44:27.474Z,18.50
2019-05-13T14:46:58.722Z,18.90
2019-05-13T14:49:31.734Z,19.00
2019-05-13T14:52:02.838Z,18.90
2019-05-13T14:54:34.167Z,18.90
2019-05-13T14:57:05.462Z,18.90
2019-05-13T14:59:36.721Z,19.50
2019-05-13T15:02:07.897Z,19.40
2019-05-13T15:04:41.738Z,18.70
2019-05-13T15:07:12.284Z,19.00
2019-05-13T15:09:46.670Z,19.30
2019-05-13T15:12:18.329Z,19.00
2019-05-13T15:14:52.068Z,19.60
2019-05-13T15:17:22.572Z,20.40
2019-05-13T15:20:09.525Z,20.40
2019-05-13T15:22:42.474Z,20.20
2019-05-13T15:25:14.097Z,19.70
2019-05-13T15:27:45.352Z,19.70
2019-05-13T15:30:21.813Z,20.40
2019-05-13T15:33:01.581Z,20.90
2019-05-13T15:35:32.237Z,21.20
2019-05-13T15:38:03.514Z,21.40
2019-05-13T15:40:34.951Z,20.90
2019-05-13T15:43:06.200Z,20.30
2019-05-13T15:45:37.492Z,19.90
2019-05-13T15:48:08.779Z,19.90
2019-05-13T15:50:42.042Z,20.40
2019-05-13T15:53:13.062Z,20.20
2019-05-13T15:55:44.295Z,20.30
2019-05-13T15:58:15.466Z,20.80
2019-05-13T16:00:46.736Z,21.80
2019-05-13T16:03:17.973Z,22.20
2019-05-13T16:05:51.507Z,22.80
2019-05-13T16:08:22.080Z,22.80
2019-05-13T16:10:53.589Z,22.60
2019-05-13T16:13:24.800Z,22.50
2019-05-13T16:15:56.104Z,21.00
2019-05-13T16:18:27.325Z,20.20
2019-05-13T16:20:58.587Z,20.10
2019-05-13T16:23:32.481Z,19.70
2019-05-13T16:26:02.737Z,19.10
2019-05-13T16:28:33.971Z,18.90
2019-05-13T16:31:05.294Z,18.20
2019-05-13T16:33:36.569Z,17.70
2019-05-13T16:36:07.877Z,17.50
2019-05-13T16:38:41.418Z,17.30
2019-05-13T16:41:12.686Z,17.10
2019-05-13T16:43:44.104Z,16.80
2019-05-13T16:46:15.379Z,16.50
2019-05-13T16:48:46.606Z,16.40
2019-05-13T16:51:17.800Z,16.30
2019-05-13T16:53:49.066Z,16.20
2019-05-13T16:56:27.836Z,16.10
2019-05-13T16:58:53.186Z,16.00
2019-05-13T17:01:26.840Z,16.00
2019-05-13T17:03:58.085Z,16.00
2019-05-13T17:06:29.386Z,16.10
2019-05-13T17:09:01.996Z,16.20
2019-05-13T17:11:33.403Z,16.20
2019-05-13T17:14:11.669Z,16.10
2019-05-13T17:16:42.982Z,16.00
2019-05-13T17:19:14.332Z,15.90
2019-05-13T17:21:45.424Z,15.90
2019-05-13T17:24:16.689Z,15.70
2019-05-13T17:26:47.982Z,15.70
2019-05-13T17:29:21.146Z,15.60
2019-05-13T17:31:52.119Z,15.70
2019-05-13T17:34:23.261Z,15.80
2019-05-13T17:36:54.570Z,15.80
2019-05-13T17:39:26.026Z,15.80
2019-05-13T17:41:57.298Z,15.80
2019-05-13T17:44:28.663Z,15.70
2019-05-13T17:47:01.730Z,15.70
2019-05-13T17:49:33.032Z,15.60
2019-05-13T17:52:04.318Z,15.70
2019-05-13T17:54:35.918Z,15.60
2019-05-13T17:57:07.443Z,15.40
2019-05-13T17:59:38.856Z,15.30
2019-05-13T18:02:12.856Z,15.20
2019-05-13T18:04:49.268Z,15.20
2019-05-13T18:07:23.488Z,15.10
2019-05-13T18:09:57.793Z,15.00
2019-05-13T18:12:29.301Z,15.00
2019-05-13T18:15:02.501Z,14.90
2019-05-13T18:17:36.231Z,14.90
2019-05-13T18:20:08.576Z,14.80
2019-05-13T18:22:42.405Z,14.70
2019-05-13T18:25:13.979Z,14.70
2019-05-13T18:27:45.271Z,14.60
2019-05-13T18:30:16.933Z,14.50
2019-05-13T18:32:51.803Z,14.50
2019-05-13T18:35:23.261Z,14.40
2019-05-13T18:37:56.889Z,14.20
2019-05-13T18:40:33.766Z,14.10
2019-05-13T18:43:11.177Z,14.00
2019-05-13T18:45:42.527Z,14.00
2019-05-13T18:51:11.871Z,13.90
2019-05-13T18:53:43.326Z,13.80
2019-05-13T18:56:14.634Z,13.70
2019-05-13T18:58:48.639Z,13.70
2019-05-13T19:01:21.564Z,13.70
2019-05-13T19:03:53.030Z,13.60
2019-05-13T19:06:27.245Z,13.50
2019-05-13T19:09:05.908Z,13.50
2019-05-13T19:11:38.273Z,13.30
2019-05-13T19:14:12.255Z,13.20
2019-05-13T19:16:46.315Z,13.10
2019-05-13T19:19:20.680Z,13.00
2019-05-13T19:21:54.471Z,13.00
2019-05-13T19:24:25.702Z,12.90
2019-05-13T19:27:01.614Z,12.90
2019-05-13T19:29:35.291Z,12.80
2019-05-13T19:32:13.546Z,12.80
2019-05-13T19:34:47.192Z,12.70
2019-05-13T19:37:22.488Z,12.70
2019-05-13T19:39:54.041Z,12.70
2019-05-13T19:42:25.576Z,12.70
2019-05-13T19:44:56.807Z,12.60
2019-05-13T19:47:28.149Z,12.60
2019-05-13T19:50:01.922Z,12.50
2019-05-13T19:52:32.289Z,12.40
2019-05-13T19:55:03.581Z,12.30
2019-05-13T19:57:34.903Z,12.30
2019-05-13T20:00:09.971Z,12.20
2019-05-13T20:02:42.053Z,12.30
2019-05-13T20:05:13.091Z,12.30
2019-05-13T20:07:44.384Z,12.30
2019-05-13T20:10:16.066Z,12.30
2019-05-13T20:12:48.197Z,12.20
2019-05-13T20:15:22.958Z,12.10
2019-05-13T20:17:57.183Z,12.10
2019-05-13T20:20:32.941Z,12.10
2019-05-13T20:23:17.610Z,12.10
2019-05-13T20:25:52.407Z,12.00
2019-05-13T20:28:23.743Z,11.90
2019-05-13T20:30:55.027Z,11.90
2019-05-13T20:33:26.378Z,11.70
2019-05-13T20:35:57.627Z,11.60
2019-05-13T20:38:31.458Z,11.60
2019-05-13T20:41:02.095Z,11.50
2019-05-13T20:43:35.197Z,11.50
2019-05-13T20:49:31.659Z,11.50
2019-05-13T20:52:02.947Z,11.40
2019-05-13T20:54:34.277Z,11.30
2019-05-13T20:57:06.604Z,11.30
2019-05-13T20:59:37.803Z,11.10
2019-05-13T21:02:09.021Z,11.10
2019-05-13T21:04:40.378Z,11.00
2019-05-13T21:07:11.689Z,11.00
2019-05-13T21:09:43.029Z,11.00
2019-05-13T21:12:14.559Z,10.90
2019-05-13T21:14:45.799Z,10.90
2019-05-13T21:17:18.392Z,10.90
2019-05-13T21:19:52.822Z,10.80
2019-05-13T21:22:26.846Z,10.80
2019-05-13T21:25:02.011Z,10.80
2019-05-13T21:27:31.543Z,10.70
2019-05-13T21:30:02.857Z,10.60
2019-05-13T21:32:34.068Z,10.60
2019-05-13T21:35:05.539Z,10.50
2019-05-13T21:37:36.792Z,10.40
2019-05-13T21:40:11.135Z,10.30
2019-05-13T21:42:42.137Z,10.30
2019-05-13T21:45:13.662Z,10.20
2019-05-13T21:47:44.809Z,10.20
2019-05-13T21:50:16.071Z,10.20
2019-05-13T21:52:47.180Z,10.10
2019-05-13T21:55:18.465Z,10.10
2019-05-13T21:57:49.730Z,10.10
2019-05-13T22:00:24.337Z,10.10
2019-05-13T22:02:55.594Z,10.00
2019-05-13T22:05:26.855Z,10.00
2019-05-13T22:07:57.992Z,10.00
2019-05-13T22:10:31.102Z,9.90
2019-05-13T22:13:02.076Z,9.90
2019-05-13T22:15:33.437Z,9.80
2019-05-13T22:18:04.658Z,9.80
2019-05-13T22:20:47.385Z,9.80
2019-05-13T22:23:08.809Z,9.80
2019-05-13T22:25:43.396Z,9.70
2019-05-13T22:28:12.896Z,9.70
2019-05-13T22:30:44.167Z,9.60
2019-05-13T22:33:15.427Z,9.60
2019-05-13T22:35:46.705Z,9.50
2019-05-13T22:38:17.928Z,9.50
2019-05-13T22:40:49.208Z,9.40
2019-05-13T22:43:21.160Z,9.40
2019-05-13T22:45:52.553Z,9.30
2019-05-13T22:48:23.748Z,9.20
2019-05-13T22:50:55.067Z,9.20
2019-05-13T22:53:26.310Z,9.10
2019-05-13T22:55:57.546Z,9.10
2019-05-13T22:58:28.750Z,9.00
2019-05-13T23:01:02.388Z,9.00
2019-05-13T23:03:32.942Z,9.00
2019-05-13T23:06:04.169Z,8.90
2019-05-13T23:08:35.317Z,8.80
2019-05-13T23:11:06.586Z,8.80
2019-05-13T23:13:37.754Z,8.70
2019-05-13T23:16:11.404Z,8.70
2019-05-13T23:18:42.294Z,8.70
2019-05-13T23:21:14.350Z,8.60
2019-05-13T23:23:45.565Z,8.60
2019-05-13T23:26:16.768Z,8.50
2019-05-13T23:28:48.000Z,8.40
2019-05-13T23:31:19.284Z,8.40
2019-05-13T23:33:50.455Z,8.30
2019-05-13T23:36:21.713Z,8.20
2019-05-13T23:38:52.959Z,8.20
2019-05-13T23:41:24.211Z,8.20
2019-05-13T23:43:55.446Z,8.10
2019-05-13T23:46:26.733Z,8.10
2019-05-13T23:48:57.966Z,8.00
2019-05-13T23:51:29.172Z,7.90
2019-05-13T23:54:01.601Z,7.90
2019-05-13T23:56:32.930Z,7.70
2019-05-13T23:59:04.224Z,7.60
